Time,TemperatureF,DewpointF,PressureIn,WindDirection,WindDirectionDegrees,WindSpeedMPH,WindSpeedGustMPH,Humidity,HourlyPrecipIn,Conditions,Clouds,dailyrainin,SolarRadiationWatts/m^2,SoftwareType,DateUTC
2013-08-28 11:11:00,83.0,70.0,-100.00,SSW,211,4.0,7.0,66,0.00,,,0.00,499.000000,,2013-08-28 16:11:00,
2013-08-28 12:11:00,86.0,72.0,-100.00,SSW,203,4.0,10.0,63,0.00,,,0.00,609.000000,,2013-08-28 17:11:00,
2013-08-28 12:44:00,86.0,72.0,-100.00,SSW,203,4.0,10.0,63,0.00,,,0.00,609.000000,,2013-08-28 17:44:00,
2013-08-28 12:52:00,86.0,72.0,-100.00,SSW,203,4.0,10.0,63,0.00,,,0.00,609.000000,,2013-08-28 17:52:00,
2013-08-28 13:02:00,86.0,72.0,-100.00,SSW,203,4.0,10.0,63,0.00,,,0.00,609.000000,,2013-08-28 18:02:00,
2013-08-28 13:11:00,88.0,75.0,-100.00,SSW,192,4.0,7.0,65,0.00,,,0.00,686.000000,,2013-08-28 18:11:00,
2013-08-28 13:42:00,88.0,75.0,-100.00,SSW,192,4.0,7.0,65,0.00,,,0.00,686.000000,,2013-08-28 18:42:00,
2013-08-28 13:53:00,88.0,75.0,-100.00,SSW,192,4.0,7.0,65,0.00,,,0.00,686.000000,,2013-08-28 18:53:00,
2013-08-28 14:02:00,88.0,75.0,-100.00,SSW,192,4.0,7.0,65,0.00,,,0.00,686.000000,,2013-08-28 19:02:00,
2013-08-28 14:11:00,91.0,75.0,-100.00,SSW,194,4.0,7.0,60,0.00,,,0.00,717.000000,,2013-08-28 19:11:00,
2013-08-28 14:42:00,91.0,75.0,-100.00,SSW,194,4.0,7.0,60,0.00,,,0.00,717.000000,,2013-08-28 19:42:00,
2013-08-28 14:52:00,91.0,75.0,-100.00,SSW,194,4.0,7.0,60,0.00,,,0.00,717.000000,,2013-08-28 19:52:00,
2013-08-28 15:03:00,91.0,75.0,-100.00,SSW,194,4.0,7.0,60,0.00,,,0.00,717.000000,,2013-08-28 20:03:00,
2013-08-28 15:11:00,92.0,76.0,-100.00,WSW,257,4.0,7.0,60,0.00,,,0.00,695.000000,,2013-08-28 20:11:00,
2013-08-28 15:43:00,92.0,76.0,-100.00,WSW,257,4.0,7.0,60,0.00,,,0.00,695.000000,,2013-08-28 20:43:00,
2013-08-28 15:52:00,92.0,76.0,-100.00,WSW,257,4.0,7.0,60,0.00,,,0.00,695.000000,,2013-08-28 20:52:00,
2013-08-28 16:01:00,92.0,76.0,-100.00,WSW,257,4.0,7.0,60,0.00,,,0.00,695.000000,,2013-08-28 21:01:00,
2013-08-28 16:11:00,94.0,77.0,-100.00,South,178,3.0,9.0,59,0.00,,,0.00,634.000000,,2013-08-28 21:11:00,
2013-08-28 16:44:00,94.0,77.0,-100.00,South,178,3.0,9.0,59,0.00,,,0.00,634.000000,,2013-08-28 21:44:00,
2013-08-28 16:57:00,94.0,77.0,-100.00,South,178,3.0,9.0,59,0.00,,,0.00,634.000000,,2013-08-28 21:57:00,
2013-08-28 17:08:00,94.0,77.0,-100.00,South,178,3.0,9.0,59,0.00,,,0.00,634.000000,,2013-08-28 22:08:00,
2013-08-28 17:11:00,93.0,78.0,-100.00,SSW,196,3.0,10.0,61,0.00,,,0.00,527.000000,,2013-08-28 22:11:00,
2013-08-28 17:43:00,93.0,78.0,-100.00,SSW,196,3.0,10.0,61,0.00,,,0.00,527.000000,,2013-08-28 22:43:00,
2013-08-28 17:54:00,93.0,78.0,-100.00,SSW,196,3.0,10.0,61,0.00,,,0.00,527.000000,,2013-08-28 22:54:00,
2013-08-28 18:03:00,93.0,78.0,-100.00,SSW,196,3.0,10.0,61,0.00,,,0.00,527.000000,,2013-08-28 23:03:00,
2013-08-28 18:11:00,92.0,78.0,-100.00,SSW,196,4.0,9.0,64,0.00,,,0.00,384.000000,,2013-08-28 23:11:00,
2013-08-28 18:42:00,92.0,78.0,-100.00,SSW,196,4.0,9.0,64,0.00,,,0.00,384.000000,,2013-08-28 23:42:00,
2013-08-28 18:53:00,92.0,78.0,-100.00,SSW,196,4.0,9.0,64,0.00,,,0.00,384.000000,,2013-08-28 23:53:00,
2013-08-28 19:03:00,92.0,78.0,-100.00,SSW,196,4.0,9.0,64,0.00,,,0.00,384.000000,,2013-08-29 00:03:00,
2013-08-28 19:11:00,90.0,78.0,-100.00,SSW,211,1.0,9.0,68,0.00,,,0.00,221.000000,,2013-08-29 00:11:00,
2013-08-28 20:04:00,90.0,78.0,-100.00,SSW,211,1.0,9.0,68,0.00,,,0.00,221.000000,,2013-08-29 01:04:00,
2013-08-28 20:11:00,83.0,76.0,-100.00,ESE,119,1.0,4.0,79,0.00,,,-99.99,46.000000,,2013-08-29 01:11:00,
2013-08-28 20:42:00,83.0,76.0,-100.00,ESE,119,1.0,4.0,79,0.00,,,-99.99,46.000000,,2013-08-29 01:42:00,
2013-08-28 20:52:00,83.0,76.0,-100.00,ESE,119,1.0,4.0,79,0.00,,,-99.99,46.000000,,2013-08-29 01:52:00,
2013-08-28 21:03:00,83.0,76.0,-100.00,ESE,119,1.0,4.0,79,0.00,,,-99.99,46.000000,,2013-08-29 02:03:00,
2013-08-28 21:11:00,81.0,74.0,-100.00,SSE,151,2.0,6.0,80,0.00,,,0.00,1.000000,,2013-08-29 02:11:00,
2013-08-28 21:52:00,81.0,74.0,-100.00,SSE,151,2.0,6.0,80,0.00,,,0.00,1.000000,,2013-08-29 02:52:00,
2013-08-28 22:02:00,81.0,74.0,-100.00,SSE,151,2.0,6.0,80,0.00,,,0.00,1.000000,,2013-08-29 03:02:00,
2013-08-28 22:11:00,80.0,73.0,-100.00,ENE,69,2.0,7.0,79,0.00,,,0.00,0.000000,,2013-08-29 03:11:00,
2013-08-28 22:45:00,80.0,73.0,-100.00,ENE,69,2.0,7.0,79,0.00,,,0.00,0.000000,,2013-08-29 03:45:00,
2013-08-28 22:57:00,80.0,73.0,-100.00,ENE,69,2.0,7.0,79,0.00,,,0.00,0.000000,,2013-08-29 03:57:00,
2013-08-28 23:08:00,80.0,73.0,-100.00,ENE,69,2.0,7.0,79,0.00,,,0.00,0.000000,,2013-08-29 04:08:00,
2013-08-28 23:11:00,78.0,72.0,-100.00,East,93,4.0,7.0,81,0.00,,,0.00,0.000000,,2013-08-29 04:11:00,
2013-08-28 23:46:00,78.0,72.0,-100.00,East,93,4.0,7.0,81,0.00,,,0.00,0.000000,,2013-08-29 04:46:00,
2013-08-28 23:54:00,78.0,72.0,-100.00,East,93,4.0,7.0,81,0.00,,,0.00,0.000000,,2013-08-29 04:54:00,